createdAt,value
2018-12-21T00:01:45.780Z,99090.21
2018-12-21T00:04:14.638Z,99089.73
2018-12-21T00:06:43.284Z,99091.13
2018-12-21T00:09:12.009Z,99088.81
2018-12-21T00:11:40.773Z,99100.68
2018-12-21T00:14:09.478Z,99107.13
2018-12-21T00:16:38.216Z,99104.55
2018-12-21T00:19:06.860Z,99103.19
2018-12-21T00:21:35.615Z,99112.59
2018-12-21T00:24:04.441Z,99116.34
2018-12-21T00:26:33.197Z,99117.83
2018-12-21T00:29:01.896Z,99111.78
2018-12-21T00:31:35.851Z,99111.38
2018-12-21T00:34:09.678Z,99118.27
2018-12-21T00:36:43.697Z,99128.62
2018-12-21T00:39:17.690Z,99133.13
2018-12-21T00:41:45.613Z,99130.83
2018-12-21T00:44:19.606Z,99126.66
2018-12-21T00:46:51.957Z,99127.42
2018-12-21T00:49:21.225Z,99128.97
2018-12-21T00:51:50.070Z,99134.93
2018-12-21T00:54:18.841Z,99134.77
2018-12-21T00:56:47.607Z,99140.33
2018-12-21T00:59:16.325Z,99141.20
2018-12-21T01:01:46.136Z,99129.35
2018-12-21T01:04:14.843Z,99138.30
2018-12-21T01:06:43.612Z,99124.41
2018-12-21T01:09:12.398Z,99103.45
2018-12-21T01:11:41.356Z,99092.61
2018-12-21T01:14:10.263Z,99098.69
2018-12-21T01:16:39.184Z,99099.91
2018-12-21T01:19:07.964Z,99109.30
2018-12-21T01:21:38.901Z,99123.80
2018-12-21T01:24:07.354Z,99124.23
2018-12-21T01:26:36.160Z,99118.74
2018-12-21T01:29:04.867Z,99115.91
2018-12-21T01:31:33.735Z,99114.58
2018-12-21T01:34:02.371Z,99122.24
2018-12-21T01:36:31.113Z,99128.91
2018-12-21T01:38:59.918Z,99122.13
2018-12-21T01:41:28.619Z,99117.27
2018-12-21T01:43:57.345Z,99110.89
2018-12-21T01:46:26.031Z,99110.64
2018-12-21T01:48:54.744Z,99101.48
2018-12-21T01:51:23.674Z,99093.75
2018-12-21T01:53:52.453Z,99091.53
2018-12-21T01:56:21.208Z,99097.16
2018-12-21T01:58:49.920Z,99092.61
2018-12-21T02:01:18.676Z,99084.27
2018-12-21T02:03:47.370Z,99069.97
2018-12-21T02:06:16.252Z,99065.44
2018-12-21T02:08:44.999Z,99066.33
2018-12-21T02:11:13.739Z,99076.35
2018-12-21T02:13:48.857Z,99084.68
2018-12-21T02:16:17.560Z,99083.10
2018-12-21T02:18:46.317Z,99083.21
2018-12-21T02:21:15.020Z,99081.44
2018-12-21T02:23:43.683Z,99086.45
2018-12-21T02:26:12.596Z,99089.62
2018-12-21T02:28:41.482Z,99087.48
2018-12-21T02:31:10.138Z,99083.77
2018-12-21T02:33:38.907Z,99088.48
2018-12-21T02:36:07.744Z,99087.89
2018-12-21T02:38:36.514Z,99090.29
2018-12-21T02:41:05.201Z,99087.82
2018-12-21T02:43:33.981Z,99080.66
2018-12-21T02:46:02.671Z,99076.02
2018-12-21T02:48:31.377Z,99076.31
2018-12-21T02:51:00.191Z,99071.45
2018-12-21T02:53:28.887Z,99076.39
2018-12-21T02:55:57.875Z,99078.05
2018-12-21T02:58:26.663Z,99087.70
2018-12-21T03:00:55.370Z,99084.17
2018-12-21T03:03:24.100Z,99083.12
2018-12-21T03:05:52.834Z,99087.55
2018-12-21T03:08:21.704Z,99089.80
2018-12-21T03:10:50.574Z,99085.30
2018-12-21T03:13:19.276Z,99084.09
2018-12-21T03:15:47.957Z,99082.55
2018-12-21T03:18:16.820Z,99079.09
2018-12-21T03:20:45.632Z,99083.91
2018-12-21T03:23:14.344Z,99075.28
2018-12-21T03:25:43.103Z,99081.14
2018-12-21T03:28:11.961Z,99081.55
2018-12-21T03:30:40.710Z,99078.79
2018-12-21T03:33:09.490Z,99086.08
2018-12-21T03:35:38.210Z,99079.60
2018-12-21T03:38:07.108Z,99072.67
2018-12-21T03:40:35.917Z,99074.19
2018-12-21T03:43:04.582Z,99076.06
2018-12-21T03:45:33.389Z,99073.34
2018-12-21T03:48:02.086Z,99069.69
2018-12-21T03:50:30.800Z,99072.97
2018-12-21T03:52:59.537Z,99076.67
2018-12-21T03:55:28.325Z,99074.70
2018-12-21T03:57:57.077Z,99080.52
2018-12-21T04:00:25.839Z,99078.05
2018-12-21T04:02:54.558Z,99090.29
2018-12-21T04:05:23.218Z,99082.73
2018-12-21T04:07:51.961Z,99083.91
2018-12-21T04:10:20.630Z,99088.00
2018-12-21T04:12:49.389Z,99093.97
2018-12-21T04:15:18.133Z,99093.38
2018-12-21T04:17:46.883Z,99093.16
2018-12-21T04:20:15.670Z,99090.58
2018-12-21T04:22:44.488Z,99096.30
2018-12-21T04:25:13.142Z,99094.48
2018-12-21T04:27:41.898Z,99096.30
2018-12-21T04:30:11.144Z,99104.99
2018-12-21T04:32:39.850Z,99112.26
2018-12-21T04:35:08.653Z,99096.30
2018-12-21T04:37:37.404Z,99100.98
2018-12-21T04:40:06.704Z,99099.31
2018-12-21T04:42:35.405Z,99108.56
2018-12-21T04:45:04.388Z,99101.34
2018-12-21T04:47:33.229Z,99111.33
2018-12-21T04:50:01.975Z,99105.36
2018-12-21T04:52:30.618Z,99105.25
2018-12-21T04:54:59.412Z,99103.52
2018-12-21T04:57:28.113Z,99097.84
2018-12-21T04:59:57.029Z,99097.52
2018-12-21T05:02:25.795Z,99092.80
2018-12-21T05:04:54.617Z,99082.98
2018-12-21T05:07:23.307Z,99080.70
2018-12-21T05:09:52.125Z,99071.75
2018-12-21T05:12:20.809Z,99074.81
2018-12-21T05:14:49.606Z,99076.28
2018-12-21T05:17:18.343Z,99066.99
2018-12-21T05:19:47.149Z,99057.16
2018-12-21T05:22:15.813Z,99065.16
2018-12-21T05:24:44.555Z,99059.33
2018-12-21T05:27:13.263Z,99061.91
2018-12-21T05:29:41.977Z,99063.42
2018-12-21T05:32:10.716Z,99067.44
2018-12-21T05:34:39.374Z,99062.94
2018-12-21T05:37:08.126Z,99060.00
2018-12-21T05:39:36.889Z,99063.68
2018-12-21T05:42:05.716Z,99057.49
2018-12-21T05:44:34.458Z,99063.08
2018-12-21T05:47:03.232Z,99070.95
2018-12-21T05:49:32.029Z,99065.73
2018-12-21T05:52:00.839Z,99063.16
2018-12-21T05:54:29.598Z,99072.56
2018-12-21T05:56:58.379Z,99074.13
2018-12-21T05:59:27.187Z,99079.17
2018-12-21T06:01:55.911Z,99082.99
2018-12-21T06:04:24.695Z,99082.95
2018-12-21T06:06:53.336Z,99081.55
2018-12-21T06:09:22.077Z,99086.37
2018-12-21T06:11:50.707Z,99090.84
2018-12-21T06:14:19.603Z,99089.38
2018-12-21T06:16:48.300Z,99081.95
2018-12-21T06:19:17.119Z,99088.07
2018-12-21T06:21:45.873Z,99073.91
2018-12-21T06:24:14.616Z,99081.41
2018-12-21T06:26:43.311Z,99084.36
2018-12-21T06:29:12.076Z,99072.58
2018-12-21T06:31:40.775Z,99068.86
2018-12-21T06:34:09.413Z,99072.89
2018-12-21T06:36:38.214Z,99069.24
2018-12-21T06:39:08.339Z,99080.63
2018-12-21T06:41:37.051Z,99078.27
2018-12-21T06:44:05.796Z,99079.53
2018-12-21T06:46:34.568Z,99076.17
2018-12-21T06:49:03.353Z,99080.34
2018-12-21T06:51:32.091Z,99080.88
2018-12-21T06:54:00.848Z,99075.46
2018-12-21T06:56:29.549Z,99073.73
2018-12-21T06:58:58.302Z,99083.50
2018-12-21T07:01:27.025Z,99087.27
2018-12-21T07:03:56.478Z,99091.58
2018-12-21T07:06:25.186Z,99093.56
2018-12-21T07:08:53.950Z,99094.45
2018-12-21T07:11:22.601Z,99095.55
2018-12-21T07:13:51.470Z,99098.74
2018-12-21T07:16:20.281Z,99106.96
2018-12-21T07:18:49.078Z,99109.87
2018-12-21T07:21:17.848Z,99096.70
2018-12-21T07:23:46.722Z,99098.98
2018-12-21T07:26:15.615Z,99099.05
2018-12-21T07:28:44.366Z,99105.78
2018-12-21T07:31:13.025Z,99107.72
2018-12-21T07:33:41.754Z,99111.31
2018-12-21T07:36:10.721Z,99115.45
2018-12-21T07:38:39.482Z,99127.49
2018-12-21T07:41:08.209Z,99137.01
2018-12-21T07:43:36.906Z,99146.34
2018-12-21T07:46:05.699Z,99155.77
2018-12-21T07:48:34.349Z,99153.73
2018-12-21T07:51:03.100Z,99150.80
2018-12-21T07:53:35.955Z,99144.65
2018-12-21T07:56:02.720Z,99147.30
2018-12-21T07:58:31.583Z,99145.94
2018-12-21T08:01:00.330Z,99145.32
2018-12-21T08:03:29.124Z,99137.11
2018-12-21T08:05:57.812Z,99134.46
2018-12-21T08:08:26.557Z,99141.36
2018-12-21T08:10:55.275Z,99133.33
2018-12-21T08:13:24.027Z,99122.89
2018-12-21T08:15:52.795Z,99121.48
2018-12-21T08:18:21.556Z,99122.36
2018-12-21T08:20:50.381Z,99112.45
2018-12-21T08:23:19.094Z,99098.12
2018-12-21T08:25:47.780Z,99101.67
2018-12-21T08:28:16.482Z,99094.76
2018-12-21T08:30:45.243Z,99086.34
2018-12-21T08:33:13.974Z,99097.97
2018-12-21T08:35:42.843Z,99109.80
2018-12-21T08:38:12.586Z,99106.79
2018-12-21T08:40:41.318Z,99107.63
2018-12-21T08:43:10.060Z,99099.48
2018-12-21T08:45:38.821Z,99090.45
2018-12-21T08:48:07.644Z,99093.89
2018-12-21T08:50:36.282Z,99088.36
2018-12-21T08:53:05.138Z,99086.97
2018-12-21T08:55:33.961Z,99093.14
2018-12-21T08:58:02.750Z,99097.08
2018-12-21T09:00:31.396Z,99092.29
2018-12-21T09:03:00.223Z,99095.07
2018-12-21T09:05:29.013Z,99102.94
2018-12-21T09:07:57.865Z,99098.56
2018-12-21T09:10:26.732Z,99093.99
2018-12-21T09:12:55.515Z,99098.70
2018-12-21T09:15:24.231Z,99094.52
2018-12-21T09:17:53.149Z,99088.13
2018-12-21T09:20:21.879Z,99083.72
2018-12-21T09:22:50.674Z,99077.67
2018-12-21T09:25:19.409Z,99073.45
2018-12-21T09:27:48.199Z,99082.23
2018-12-21T09:30:17.004Z,99087.56
2018-12-21T09:32:45.688Z,99079.37
2018-12-21T09:35:14.407Z,99067.31
2018-12-21T09:37:43.165Z,99059.09
2018-12-21T09:40:13.216Z,99065.53
2018-12-21T09:42:41.999Z,99066.75
2018-12-21T09:45:10.834Z,99051.69
2018-12-21T09:47:39.563Z,99045.56
2018-12-21T09:50:10.322Z,99042.12
2018-12-21T09:52:38.997Z,99039.03
2018-12-21T09:55:08.593Z,99046.44
2018-12-21T09:57:37.539Z,99039.68
2018-12-21T10:00:09.541Z,99040.25
2018-12-21T10:02:38.230Z,99030.78
2018-12-21T10:05:09.019Z,99021.77
2018-12-21T10:07:37.820Z,99023.45
2018-12-21T10:10:07.034Z,99022.16
2018-12-21T10:12:35.750Z,99023.04
2018-12-21T10:15:05.140Z,99023.95
2018-12-21T10:17:33.901Z,99017.55
2018-12-21T10:20:02.690Z,99009.00
2018-12-21T10:22:37.868Z,99000.40
2018-12-21T10:25:07.148Z,98991.16
2018-12-21T10:27:35.793Z,98990.44
2018-12-21T10:30:05.542Z,99004.31
2018-12-21T10:32:34.319Z,99003.36
2018-12-21T10:35:03.037Z,98993.95
2018-12-21T10:37:31.755Z,98992.30
2018-12-21T10:40:00.516Z,98996.63
2018-12-21T10:42:29.272Z,98996.72
2018-12-21T10:44:57.963Z,98993.80
2018-12-21T10:47:26.699Z,98988.75
2018-12-21T10:49:55.631Z,98971.00
2018-12-21T10:52:24.373Z,98977.13
2018-12-21T10:57:28.228Z,98962.95
2018-12-21T10:59:56.979Z,98966.25
2018-12-21T11:02:25.676Z,98965.67
2018-12-21T11:04:54.387Z,98967.28
2018-12-21T11:07:23.092Z,98972.70
2018-12-21T11:09:51.930Z,98969.37
2018-12-21T11:12:20.774Z,98968.84
2018-12-21T11:14:49.421Z,98968.33
2018-12-21T11:17:18.319Z,98973.48
2018-12-21T11:22:19.306Z,98983.39
2018-12-21T11:24:48.085Z,98980.73
2018-12-21T11:27:16.786Z,98992.41
2018-12-21T11:29:45.494Z,98990.00
2018-12-21T11:32:14.253Z,98981.66
2018-12-21T11:34:42.960Z,98982.05
2018-12-21T11:37:11.789Z,98984.20
2018-12-21T11:39:40.636Z,98986.28
2018-12-21T11:42:09.396Z,98994.06
2018-12-21T11:44:38.158Z,99001.46
2018-12-21T11:47:06.940Z,99016.09
2018-12-21T11:49:35.683Z,99021.27
2018-12-21T11:52:04.327Z,99019.44
2018-12-21T11:54:33.185Z,99005.44
2018-12-21T11:57:01.861Z,99004.13
2018-12-21T11:59:30.535Z,98995.98
2018-12-21T12:01:59.308Z,98987.07
2018-12-21T12:04:28.004Z,98981.34
2018-12-21T12:06:56.760Z,98978.08
2018-12-21T12:09:25.516Z,98972.87
2018-12-21T12:11:54.167Z,98954.03
2018-12-21T12:14:22.922Z,98951.15
2018-12-21T12:16:51.693Z,98942.37
2018-12-21T12:19:20.471Z,98934.52
2018-12-21T12:21:49.225Z,98937.16
2018-12-21T12:24:17.964Z,98935.28
2018-12-21T12:26:46.684Z,98931.18
2018-12-21T12:29:15.412Z,98931.67
2018-12-21T12:31:44.145Z,98932.06
2018-12-21T12:34:12.883Z,98924.84
2018-12-21T12:36:41.642Z,98928.77
2018-12-21T12:39:10.455Z,98924.11
2018-12-21T12:41:39.196Z,98923.22
2018-12-21T12:44:07.974Z,98918.69
2018-12-21T12:46:39.636Z,98920.98
2018-12-21T12:49:08.471Z,98925.80
2018-12-21T12:51:37.192Z,98927.52
2018-12-21T12:54:05.931Z,98929.67
2018-12-21T12:56:34.708Z,98919.30
2018-12-21T12:59:03.458Z,98918.42
2018-12-21T13:01:32.230Z,98908.16
2018-12-21T13:04:00.978Z,98896.92
2018-12-21T13:06:29.696Z,98892.56
2018-12-21T13:08:58.332Z,98881.71
2018-12-21T13:11:27.123Z,98877.53
2018-12-21T13:13:57.043Z,98875.33
2018-12-21T13:16:25.825Z,98873.17
2018-12-21T13:18:54.555Z,98871.44
2018-12-21T13:21:23.270Z,98880.44
2018-12-21T13:23:52.148Z,98884.58
2018-12-21T13:26:20.966Z,98897.17
2018-12-21T13:28:49.892Z,98898.41
2018-12-21T13:31:18.590Z,98897.46
2018-12-21T13:33:47.353Z,98890.36
2018-12-21T13:36:16.143Z,98891.60
2018-12-21T13:38:44.856Z,98899.70
2018-12-21T13:41:13.622Z,98913.06
2018-12-21T13:43:42.320Z,98914.69
2018-12-21T13:46:11.023Z,98922.00
2018-12-21T13:48:39.800Z,98929.76
2018-12-21T13:51:08.521Z,98923.17
2018-12-21T13:53:37.234Z,98921.27
2018-12-21T13:56:05.954Z,98931.33
2018-12-21T13:58:34.741Z,98942.13
2018-12-21T14:01:03.593Z,98950.27
2018-12-21T14:03:32.415Z,98954.56
2018-12-21T14:06:01.104Z,98947.12
2018-12-21T14:08:29.849Z,98946.05
2018-12-21T14:10:58.540Z,98948.35
2018-12-21T14:13:27.277Z,98954.91
2018-12-21T14:15:55.904Z,98969.97
2018-12-21T14:18:24.725Z,98978.07
2018-12-21T14:20:53.488Z,98968.58
2018-12-21T14:23:22.224Z,98965.47
2018-12-21T14:25:50.880Z,98967.49
2018-12-21T14:28:19.607Z,98963.61
2018-12-21T14:30:48.361Z,98959.22
2018-12-21T14:33:17.120Z,98958.38
2018-12-21T14:35:45.878Z,98973.00
2018-12-21T14:38:14.731Z,98973.00
2018-12-21T14:40:43.387Z,98965.45
2018-12-21T14:43:12.139Z,98965.07
2018-12-21T14:45:40.952Z,98951.20
2018-12-21T14:48:09.735Z,98930.51
2018-12-21T14:50:38.461Z,98928.08
2018-12-21T14:53:07.175Z,98922.34
2018-12-21T14:55:37.604Z,98926.95
2018-12-21T14:58:06.731Z,98937.14
2018-12-21T15:00:35.530Z,98941.20
2018-12-21T15:03:04.250Z,98943.17
2018-12-21T15:05:32.951Z,98947.29
2018-12-21T15:08:01.824Z,98950.80
2018-12-21T15:10:30.519Z,98953.89
2018-12-21T15:12:59.227Z,98942.20
2018-12-21T15:15:27.955Z,98930.39
2018-12-21T15:17:56.654Z,98945.98
2018-12-21T15:20:25.486Z,98947.87
2018-12-21T15:22:54.156Z,98963.93
2018-12-21T15:25:22.902Z,98970.09
2018-12-21T15:27:51.639Z,98975.00
2018-12-21T15:30:20.348Z,98981.93
2018-12-21T15:35:24.013Z,98968.74
2018-12-21T15:37:52.713Z,98960.70
2018-12-21T15:40:21.482Z,98967.47
2018-12-21T15:42:50.224Z,98962.84
2018-12-21T15:45:19.115Z,98973.71
2018-12-21T15:47:47.954Z,98989.69
2018-12-21T15:50:16.706Z,98989.63
2018-12-21T15:52:45.515Z,98988.61
2018-12-21T15:55:14.163Z,98984.54
2018-12-21T15:57:42.907Z,98981.90
2018-12-21T16:00:13.964Z,98985.99
2018-12-21T16:02:44.828Z,98974.22
2018-12-21T16:05:13.574Z,98965.12
2018-12-21T16:07:42.387Z,98967.58
2018-12-21T16:10:12.668Z,98967.55
2018-12-21T16:12:41.484Z,98971.36
2018-12-21T16:15:11.058Z,98967.11
2018-12-21T16:17:39.852Z,98960.39
2018-12-21T16:20:11.737Z,98950.12
2018-12-21T16:22:42.552Z,98944.48
2018-12-21T16:25:11.197Z,98945.19
2018-12-21T16:27:40.116Z,98957.22
2018-12-21T16:30:11.601Z,98956.81
2018-12-21T16:32:40.453Z,98966.50
2018-12-21T16:35:09.242Z,98970.46
2018-12-21T16:37:38.089Z,98972.45
2018-12-21T16:40:08.912Z,98972.13
2018-12-21T16:42:37.688Z,98975.51
2018-12-21T16:45:08.355Z,98981.00
2018-12-21T16:47:37.129Z,98970.72
2018-12-21T16:50:09.120Z,98976.89
2018-12-21T16:52:37.979Z,98978.64
2018-12-21T16:55:06.982Z,98978.16
2018-12-21T16:57:35.828Z,98969.95
2018-12-21T17:00:07.151Z,98980.55
2018-12-21T17:02:35.816Z,98984.12
2018-12-21T17:05:05.192Z,98987.40
2018-12-21T17:07:33.996Z,98983.79
2018-12-21T17:10:02.713Z,98985.14
2018-12-21T17:12:31.467Z,98975.38
2018-12-21T17:15:00.283Z,98973.51
2018-12-21T17:17:29.001Z,98976.62
2018-12-21T17:19:58.826Z,98979.47
2018-12-21T17:22:27.636Z,98982.56
2018-12-21T17:24:56.523Z,98978.69
2018-12-21T17:27:25.253Z,98974.60
2018-12-21T17:29:54.007Z,98973.63
2018-12-21T17:32:22.853Z,98981.50
2018-12-21T17:34:51.565Z,98972.48
2018-12-21T17:37:20.362Z,98978.03
2018-12-21T17:39:49.088Z,98974.95
2018-12-21T17:42:17.855Z,98973.39
2018-12-21T17:44:46.597Z,98969.08
2018-12-21T17:47:15.389Z,98968.41
2018-12-21T17:49:44.190Z,98958.89
2018-12-21T17:52:12.900Z,98955.66
2018-12-21T17:54:41.787Z,98962.02
2018-12-21T17:57:10.555Z,98960.98
2018-12-21T17:59:39.491Z,98953.23
2018-12-21T18:02:08.249Z,98951.25
2018-12-21T18:04:36.950Z,98946.09
2018-12-21T18:07:05.716Z,98941.18
2018-12-21T18:09:36.132Z,98938.38
2018-12-21T18:12:05.111Z,98926.35
2018-12-21T18:14:33.891Z,98925.69
2018-12-21T18:17:04.253Z,98921.75
2018-12-21T18:19:32.924Z,98919.58
2018-12-21T18:22:12.310Z,98914.83
2018-12-21T18:24:41.287Z,98916.63
2018-12-21T18:27:10.133Z,98913.77
2018-12-21T18:29:40.861Z,98908.91
2018-12-21T18:32:26.871Z,98901.77
2018-12-21T18:34:57.738Z,98905.63
2018-12-21T18:37:26.395Z,98918.16
2018-12-21T18:39:55.198Z,98917.64
2018-12-21T18:42:23.916Z,98919.11
2018-12-21T18:44:52.680Z,98918.95
2018-12-21T18:47:21.339Z,98924.72
2018-12-21T18:49:50.096Z,98918.97
2018-12-21T18:52:18.796Z,98921.49
2018-12-21T18:54:47.564Z,98924.29
2018-12-21T18:57:18.523Z,98930.53
2018-12-21T18:59:47.311Z,98932.17
2018-12-21T19:02:15.977Z,98928.20
2018-12-21T19:04:44.781Z,98921.38
2018-12-21T19:07:13.570Z,98911.87
2018-12-21T19:09:42.333Z,98915.08
2018-12-21T19:12:11.452Z,98922.80
2018-12-21T19:14:40.285Z,98930.89
2018-12-21T19:17:09.770Z,98918.47
2018-12-21T19:19:38.590Z,98917.27
2018-12-21T19:22:07.522Z,98909.50
2018-12-21T19:24:36.317Z,98906.80
2018-12-21T19:27:05.200Z,98909.66
2018-12-21T19:29:33.990Z,98909.13
2018-12-21T19:32:02.840Z,98896.13
2018-12-21T19:34:31.621Z,98909.70
2018-12-21T19:37:00.534Z,98906.77
2018-12-21T19:39:29.290Z,98901.98
2018-12-21T19:41:58.079Z,98897.36
2018-12-21T19:44:27.292Z,98893.78
2018-12-21T19:46:56.090Z,98903.75
2018-12-21T19:49:24.863Z,98888.86
2018-12-21T19:51:53.627Z,98885.48
2018-12-21T19:54:23.515Z,98879.19
2018-12-21T19:57:12.050Z,98873.46
2018-12-21T19:59:40.753Z,98867.86
2018-12-21T20:02:09.917Z,98866.22
2018-12-21T20:04:40.460Z,98863.78
2018-12-21T20:07:09.118Z,98861.65
2018-12-21T20:09:37.857Z,98864.01
2018-12-21T20:12:07.323Z,98855.00
2018-12-21T20:14:36.108Z,98856.94
2018-12-21T20:17:04.826Z,98851.56
2018-12-21T20:19:33.752Z,98848.54
2018-12-21T20:22:02.537Z,98841.27
2018-12-21T20:24:33.925Z,98846.67
2018-12-21T20:27:15.214Z,98849.04
2018-12-21T20:29:44.565Z,98841.56
2018-12-21T20:32:13.350Z,98841.89
2018-12-21T20:34:42.174Z,98844.41
2018-12-21T20:37:10.898Z,98851.45
2018-12-21T20:39:42.884Z,98854.59
2018-12-21T20:42:12.676Z,98844.15
2018-12-21T20:44:41.415Z,98843.45
2018-12-21T20:47:10.635Z,98842.74
2018-12-21T20:49:39.323Z,98848.64
2018-12-21T20:52:07.999Z,98841.45
2018-12-21T20:54:36.711Z,98838.52
2018-12-21T20:57:07.663Z,98831.83
2018-12-21T20:59:36.591Z,98835.06
2018-12-21T21:02:05.384Z,98833.69
2018-12-21T21:04:34.030Z,98838.34
2018-12-21T21:07:02.900Z,98835.00
2018-12-21T21:09:31.530Z,98839.08
2018-12-21T21:12:00.255Z,98839.34
2018-12-21T21:14:29.020Z,98837.92
2018-12-21T21:16:57.781Z,98834.77
2018-12-21T21:19:28.769Z,98829.02
2018-12-21T21:21:57.488Z,98817.72
2018-12-21T21:24:26.869Z,98816.34
2018-12-21T21:26:55.879Z,98818.13
2018-12-21T21:29:24.840Z,98818.92
2018-12-21T21:31:53.541Z,98824.78
2018-12-21T21:34:22.352Z,98816.25
2018-12-21T21:36:51.125Z,98806.25
2018-12-21T21:39:19.818Z,98810.00
2018-12-21T21:41:48.564Z,98800.27
2018-12-21T21:44:18.504Z,98790.55
2018-12-21T21:46:48.507Z,98789.40
2018-12-21T21:49:19.447Z,98787.73
2018-12-21T21:51:48.424Z,98785.78
2018-12-21T21:54:17.181Z,98785.32
2018-12-21T21:56:45.925Z,98779.48
2018-12-21T21:59:14.714Z,98787.48
2018-12-21T22:01:43.409Z,98790.22
2018-12-21T22:04:12.100Z,98786.91
2018-12-21T22:06:40.872Z,98774.91
2018-12-21T22:09:09.500Z,98769.24
2018-12-21T22:11:38.212Z,98770.44
2018-12-21T22:14:07.037Z,98779.27
2018-12-21T22:16:35.703Z,98777.42
2018-12-21T22:19:04.549Z,98775.53
2018-12-21T22:21:33.195Z,98769.74
2018-12-21T22:24:01.893Z,98772.79
2018-12-21T22:26:30.656Z,98769.55
2018-12-21T22:28:59.369Z,98777.89
2018-12-21T22:31:28.080Z,98778.33
2018-12-21T22:33:56.827Z,98773.02
2018-12-21T22:39:00.649Z,98773.05
2018-12-21T22:41:29.336Z,98772.41
2018-12-21T22:43:58.022Z,98770.47
2018-12-21T22:46:26.704Z,98772.05
2018-12-21T22:48:55.504Z,98764.15
2018-12-21T22:51:24.229Z,98768.52
2018-12-21T22:53:52.994Z,98757.98
2018-12-21T22:56:21.707Z,98763.55
2018-12-21T22:58:50.456Z,98757.42
2018-12-21T23:01:19.382Z,98759.84
2018-12-21T23:03:48.016Z,98754.94
2018-12-21T23:06:16.767Z,98761.13
2018-12-21T23:08:45.454Z,98766.66
2018-12-21T23:11:14.330Z,98768.30
2018-12-21T23:13:43.141Z,98769.33
2018-12-21T23:16:11.900Z,98760.24
2018-12-21T23:18:40.636Z,98763.58
2018-12-21T23:21:09.318Z,98770.45
2018-12-21T23:23:38.065Z,98775.65
2018-12-21T23:26:06.708Z,98773.78
2018-12-21T23:28:35.412Z,98772.41
2018-12-21T23:31:04.260Z,98774.48
2018-12-21T23:33:33.049Z,98758.64
2018-12-21T23:36:01.670Z,98762.36
2018-12-21T23:38:30.376Z,98755.95
2018-12-21T23:40:59.061Z,98744.94
2018-12-21T23:43:27.734Z,98742.45
2018-12-21T23:45:56.438Z,98747.20
2018-12-21T23:48:25.342Z,98753.57
2018-12-21T23:50:54.021Z,98754.59
2018-12-21T23:53:22.816Z,98758.73
2018-12-21T23:55:51.687Z,98763.80
2018-12-21T23:58:20.433Z,98760.55
